Time;durP1;ratioP1;P1;durP2;ratioP2;P2;SDS_P1;SDS_P2;PMS_P1;PMS_P2;Temp;Humidity;BMP_temperature;BMP_pressure;BME280_temperature;BME280_humidity;BME280_pressure;Samples;Min_cycle;Max_cycle;Signal;HPM_P1;HPM_P2
2022/08/27 00:02:23;;;;;;;33.47;30.00;;;;;;;;;;5050328;28;20445;-76
2022/08/27 00:04:50;;;;;;;34.13;30.73;;;;;;;;;;5050654;28;20453;-75
2022/08/27 00:07:17;;;;;;;32.80;29.33;;;;;;;;;;5050022;28;21054;-75
2022/08/27 00:09:44;;;;;;;33.40;30.20;;;;;;;;;;5047221;28;20464;-76
2022/08/27 00:12:11;;;;;;;34.03;30.73;;;;;;;;;;5050114;28;20511;-75
2022/08/27 00:14:40;;;;;;;35.00;31.40;;;;;;;;;;5050068;28;20499;-76
2022/08/27 00:17:08;;;;;;;33.20;29.80;;;;;;;;;;5050452;28;20462;-76
2022/08/27 00:19:35;;;;;;;33.03;29.83;;;;;;;;;;5051193;28;20453;-76
2022/08/27 00:22:02;;;;;;;33.00;29.80;;;;;;;;;;5050820;28;20529;-76
2022/08/27 00:24:29;;;;;;;33.83;30.63;;;;;;;;;;5054529;28;20973;-76
2022/08/27 00:26:56;;;;;;;32.20;29.00;;;;;;;;;;5054593;28;20465;-76
2022/08/27 00:29:25;;;;;;;32.77;29.70;;;;;;;;;;5054260;28;20445;-75
2022/08/27 00:31:54;;;;;;;33.30;30.00;;;;;;;;;;5054362;28;21002;-75
2022/08/27 00:34:21;;;;;;;34.80;31.37;;;;;;;;;;5050855;28;21123;-75
2022/08/27 00:36:48;;;;;;;33.80;30.63;;;;;;;;;;5048524;28;20474;-76
2022/08/27 00:39:16;;;;;;;35.20;31.83;;;;;;;;;;5055342;28;20449;-75
2022/08/27 00:41:43;;;;;;;31.17;28.23;;;;;;;;;;5058312;28;20437;-75
2022/08/27 00:44:11;;;;;;;30.50;27.60;;;;;;;;;;5059056;28;20466;-75
2022/08/27 00:46:39;;;;;;;32.67;29.33;;;;;;;;;;5059172;28;20477;-76
2022/08/27 00:49:09;;;;;;;31.30;28.33;;;;;;;;;;5058030;28;20485;-75
2022/08/27 00:51:37;;;;;;;33.80;30.10;;;;;;;;;;5049816;28;20510;-76
2022/08/27 00:54:05;;;;;;;34.80;31.27;;;;;;;;;;5052425;28;20507;-78
2022/08/27 00:56:34;;;;;;;35.30;32.00;;;;;;;;;;5054029;28;20464;-75
2022/08/27 00:59:02;;;;;;;36.50;32.77;;;;;;;;;;5053701;28;20441;-76
2022/08/27 01:01:30;;;;;;;36.17;32.53;;;;;;;;;;5056941;28;20449;-77
2022/08/27 01:03:59;;;;;;;35.97;32.43;;;;;;;;;;5058051;28;20450;-77
2022/08/27 01:06:30;;;;;;;36.80;32.90;;;;;;;;;;5055135;28;20999;-75
2022/08/27 01:09:00;;;;;;;35.83;32.20;;;;;;;;;;5054091;28;20480;-75
2022/08/27 01:11:27;;;;;;;37.17;33.57;;;;;;;;;;5054258;28;20450;-77
2022/08/27 01:13:54;;;;;;;33.60;30.53;;;;;;;;;;5053455;28;20441;-75
2022/08/27 01:16:23;;;;;;;33.07;29.83;;;;;;;;;;5053567;28;20519;-75
2022/08/27 01:18:50;;;;;;;34.63;31.43;;;;;;;;;;5053483;28;21004;-76
2022/08/27 01:21:22;;;;;;;33.67;30.47;;;;;;;;;;5053810;28;20452;-75
2022/08/27 01:23:53;;;;;;;32.57;29.47;;;;;;;;;;5054224;28;20960;-75
2022/08/27 01:26:23;;;;;;;34.07;30.70;;;;;;;;;;5053280;28;20556;-75
2022/08/27 01:28:51;;;;;;;35.27;31.47;;;;;;;;;;5053435;28;20477;-75
2022/08/27 01:31:19;;;;;;;37.20;33.33;;;;;;;;;;5053557;28;20504;-75
2022/08/27 01:33:54;;;;;;;40.33;36.40;;;;;;;;;;5052408;28;20523;-75
2022/08/27 01:36:21;;;;;;;37.73;34.10;;;;;;;;;;5051282;28;20465;-76
2022/08/27 01:38:49;;;;;;;36.93;33.17;;;;;;;;;;5053240;28;20449;-76
2022/08/27 01:41:16;;;;;;;37.33;33.50;;;;;;;;;;5053255;28;20495;-75
2022/08/27 01:43:44;;;;;;;35.97;32.47;;;;;;;;;;5052692;28;20541;-75
2022/08/27 01:46:11;;;;;;;39.87;34.53;;;;;;;;;;5052784;28;20473;-75
2022/08/27 01:48:38;;;;;;;36.03;32.67;;;;;;;;;;5052606;28;20477;-75
2022/08/27 01:51:05;;;;;;;36.37;32.93;;;;;;;;;;5052379;28;20442;-75
2022/08/27 01:53:33;;;;;;;37.37;33.73;;;;;;;;;;5052595;28;20453;-76
2022/08/27 01:56:00;;;;;;;38.23;34.43;;;;;;;;;;5052748;28;20511;-76
2022/08/27 01:58:29;;;;;;;35.57;32.07;;;;;;;;;;5052561;28;20484;-75
2022/08/27 02:00:59;;;;;;;35.47;31.80;;;;;;;;;;5052305;28;20457;-75
2022/08/27 02:03:26;;;;;;;36.73;33.03;;;;;;;;;;5052578;28;20477;-76
2022/08/27 02:05:53;;;;;;;35.97;32.57;;;;;;;;;;5053279;28;20461;-75
2022/08/27 02:08:21;;;;;;;36.80;33.13;;;;;;;;;;5053249;28;20481;-75
2022/08/27 02:10:48;;;;;;;37.63;33.93;;;;;;;;;;5052464;28;20467;-76
2022/08/27 02:13:16;;;;;;;35.23;31.87;;;;;;;;;;5052299;28;20445;-75
2022/08/27 02:15:44;;;;;;;37.37;33.50;;;;;;;;;;5052463;28;20473;-76
2022/08/27 02:18:13;;;;;;;38.90;34.87;;;;;;;;;;5052234;28;20445;-75
2022/08/27 02:20:40;;;;;;;38.33;34.37;;;;;;;;;;5052307;28;20929;-75
2022/08/27 02:23:08;;;;;;;39.33;35.13;;;;;;;;;;5052378;28;20472;-75
2022/08/27 02:25:35;;;;;;;35.87;32.10;;;;;;;;;;5052180;28;20571;-75
2022/08/27 02:28:02;;;;;;;37.20;33.50;;;;;;;;;;5052346;28;20481;-75
2022/08/27 02:30:31;;;;;;;39.90;35.90;;;;;;;;;;5052962;28;20452;-75
2022/08/27 02:32:59;;;;;;;40.20;35.90;;;;;;;;;;5052002;28;20599;-75
2022/08/27 02:35:28;;;;;;;35.80;32.40;;;;;;;;;;5052284;28;20818;-75
2022/08/27 02:37:55;;;;;;;38.00;34.20;;;;;;;;;;5052229;28;20449;-76
2022/08/27 02:40:23;;;;;;;38.60;34.50;;;;;;;;;;5052600;28;20921;-76
2022/08/27 02:42:51;;;;;;;37.63;33.70;;;;;;;;;;5051352;28;20452;-76
2022/08/27 02:45:19;;;;;;;40.63;36.20;;;;;;;;;;5051434;28;20450;-76
2022/08/27 02:47:47;;;;;;;38.57;34.77;;;;;;;;;;5051645;28;20489;-75
2022/08/27 02:50:14;;;;;;;38.27;34.63;;;;;;;;;;5052014;28;20445;-75
2022/08/27 02:52:44;;;;;;;38.07;34.27;;;;;;;;;;5051596;28;20523;-75
2022/08/27 02:55:11;;;;;;;38.23;34.40;;;;;;;;;;5068440;28;20433;-75
2022/08/27 02:57:38;;;;;;;36.50;32.90;;;;;;;;;;5069220;28;20493;-74
2022/08/27 03:00:05;;;;;;;38.17;34.30;;;;;;;;;;5069623;28;20937;-74
2022/08/27 03:02:32;;;;;;;41.50;37.33;;;;;;;;;;5071685;28;20445;-75
2022/08/27 03:04:59;;;;;;;40.07;36.20;;;;;;;;;;5069447;28;20441;-75
2022/08/27 03:07:26;;;;;;;39.77;35.50;;;;;;;;;;5052273;28;20470;-75
2022/08/27 03:09:55;;;;;;;38.70;34.80;;;;;;;;;;5051185;28;20477;-75
2022/08/27 03:12:23;;;;;;;36.60;32.90;;;;;;;;;;5031742;28;20447;-75
2022/08/27 03:14:50;;;;;;;35.63;32.03;;;;;;;;;;5031382;28;20450;-75
2022/08/27 03:20:03;;;;;;;36.70;32.87;;;;;;;;;;5031446;28;20433;-75
2022/08/27 03:22:30;;;;;;;35.00;31.70;;;;;;;;;;5030970;28;20548;-75
2022/08/27 03:24:58;;;;;;;32.23;28.90;;;;;;;;;;5031286;28;20946;-75
2022/08/27 03:27:25;;;;;;;32.40;29.07;;;;;;;;;;5031228;28;20532;-75
2022/08/27 03:29:53;;;;;;;28.63;25.93;;;;;;;;;;5031161;28;20544;-76
2022/08/27 03:32:20;;;;;;;28.73;26.03;;;;;;;;;;5031525;28;20477;-74
2022/08/27 03:34:47;;;;;;;30.33;27.30;;;;;;;;;;5030950;28;20450;-76
2022/08/27 03:37:14;;;;;;;32.50;29.27;;;;;;;;;;5030859;28;20524;-75
2022/08/27 03:39:41;;;;;;;31.00;28.00;;;;;;;;;;5030741;28;20442;-76
2022/08/27 03:42:09;;;;;;;28.53;25.70;;;;;;;;;;5030655;28;20443;-75
2022/08/27 03:44:36;;;;;;;27.87;25.07;;;;;;;;;;5030432;28;20505;-76
2022/08/27 03:47:03;;;;;;;23.83;21.73;;;;;;;;;;5032202;28;21005;-76
2022/08/27 03:49:30;;;;;;;24.67;22.37;;;;;;;;;;5034750;28;21063;-75
2022/08/27 03:51:57;;;;;;;23.57;21.47;;;;;;;;;;5032776;28;20446;-74
2022/08/27 03:54:24;;;;;;;26.97;24.30;;;;;;;;;;5030327;28;20468;-75
2022/08/27 03:56:51;;;;;;;24.30;21.60;;;;;;;;;;5030701;28;20565;-75
2022/08/27 03:59:20;;;;;;;24.50;22.07;;;;;;;;;;5049425;28;20446;-75
2022/08/27 04:01:47;;;;;;;26.70;24.07;;;;;;;;;;5050209;28;20822;-76
2022/08/27 04:04:14;;;;;;;29.13;25.90;;;;;;;;;;5049685;28;20488;-76
2022/08/27 04:06:42;;;;;;;31.13;27.93;;;;;;;;;;5050081;28;20538;-75
2022/08/27 04:09:09;;;;;;;30.20;27.23;;;;;;;;;;5050972;28;20603;-75
2022/08/27 04:11:36;;;;;;;31.93;28.80;;;;;;;;;;5054060;28;20564;-75
2022/08/27 04:14:04;;;;;;;34.60;31.20;;;;;;;;;;5053879;28;20472;-75
2022/08/27 04:16:32;;;;;;;35.20;31.90;;;;;;;;;;5049887;28;20568;-76
2022/08/27 04:18:59;;;;;;;35.90;32.07;;;;;;;;;;5049925;28;20442;-75
2022/08/27 04:21:26;;;;;;;39.83;35.83;;;;;;;;;;5050216;28;20441;-75
2022/08/27 04:23:55;;;;;;;39.43;35.43;;;;;;;;;;5049565;28;20441;-75
2022/08/27 04:26:22;;;;;;;41.50;37.00;;;;;;;;;;5050103;28;20477;-75
2022/08/27 04:28:49;;;;;;;41.13;36.87;;;;;;;;;;5049805;28;20658;-75
2022/08/27 04:31:16;;;;;;;45.07;40.40;;;;;;;;;;5049667;28;20872;-76
2022/08/27 04:33:45;;;;;;;47.40;42.50;;;;;;;;;;5049558;28;20798;-75
2022/08/27 04:36:13;;;;;;;43.93;39.33;;;;;;;;;;5049987;28;20534;-75
2022/08/27 04:38:40;;;;;;;48.93;43.60;;;;;;;;;;5049665;28;20491;-74
2022/08/27 04:41:21;;;;;;;47.03;42.13;;;;;;;;;;5049611;28;20457;-74
2022/08/27 04:43:48;;;;;;;47.90;42.83;;;;;;;;;;5049207;28;20445;-74
2022/08/27 04:46:19;;;;;;;53.60;44.80;;;;;;;;;;5049674;28;20917;-75
2022/08/27 04:48:48;;;;;;;49.70;44.40;;;;;;;;;;5050485;28;20481;-74
2022/08/27 04:51:15;;;;;;;49.23;44.10;;;;;;;;;;5057851;28;20457;-76
2022/08/27 04:53:42;;;;;;;50.07;43.67;;;;;;;;;;5064424;28;20874;-75
2022/08/27 04:56:13;;;;;;;50.73;45.40;;;;;;;;;;5056406;28;20470;-75
2022/08/27 04:58:40;;;;;;;53.00;43.37;;;;;;;;;;5051469;28;20441;-74
2022/08/27 05:01:07;;;;;;;51.67;44.17;;;;;;;;;;5052114;28;20812;-75
2022/08/27 05:03:34;;;;;;;50.97;44.83;;;;;;;;;;5052776;28;20500;-75
2022/08/27 05:06:03;;;;;;;47.13;42.20;;;;;;;;;;5049894;28;20465;-75
2022/08/27 05:08:31;;;;;;;48.07;43.03;;;;;;;;;;5050892;28;20478;-75
2022/08/27 05:10:59;;;;;;;52.17;44.03;;;;;;;;;;5053344;28;20503;-75
2022/08/27 05:13:26;;;;;;;49.77;44.20;;;;;;;;;;5052776;28;20926;-75
2022/08/27 05:15:58;;;;;;;50.43;43.60;;;;;;;;;;5053097;28;20469;-75
2022/08/27 05:18:26;;;;;;;47.63;42.40;;;;;;;;;;5053086;28;20507;-75
2022/08/27 05:20:53;;;;;;;48.27;43.03;;;;;;;;;;5052757;28;20495;-75
2022/08/27 05:23:22;;;;;;;48.53;43.40;;;;;;;;;;5052734;28;20531;-77
2022/08/27 05:25:49;;;;;;;48.40;43.40;;;;;;;;;;5052938;28;20469;-75
2022/08/27 05:28:20;;;;;;;48.03;42.77;;;;;;;;;;5053056;28;20456;-75
2022/08/27 05:30:48;;;;;;;48.90;43.43;;;;;;;;;;5053020;28;20449;-75
2022/08/27 05:33:16;;;;;;;46.23;41.60;;;;;;;;;;5052255;28;21076;-75
2022/08/27 05:35:44;;;;;;;45.73;41.20;;;;;;;;;;5052216;28;20842;-76
2022/08/27 05:38:11;;;;;;;47.10;42.00;;;;;;;;;;5052442;28;20675;-76
2022/08/27 05:40:40;;;;;;;50.83;45.30;;;;;;;;;;5052831;28;20452;-75
2022/08/27 05:43:08;;;;;;;47.00;42.10;;;;;;;;;;5052306;28;20442;-75
2022/08/27 05:45:40;;;;;;;46.33;41.33;;;;;;;;;;5052275;28;20445;-75
2022/08/27 05:48:09;;;;;;;46.53;41.93;;;;;;;;;;5052271;28;20930;-75
2022/08/27 05:50:36;;;;;;;45.97;40.70;;;;;;;;;;5051874;28;20561;-75
2022/08/27 05:53:03;;;;;;;47.00;42.20;;;;;;;;;;5052078;28;20536;-76
2022/08/27 05:55:30;;;;;;;49.33;42.73;;;;;;;;;;5051976;28;20845;-75
2022/08/27 05:57:59;;;;;;;48.53;43.47;;;;;;;;;;5052246;28;20441;-76
2022/08/27 06:03:11;;;;;;;47.57;42.57;;;;;;;;;;5051907;28;20508;-75
2022/08/27 06:05:39;;;;;;;45.83;41.07;;;;;;;;;;5051873;28;20448;-75
2022/08/27 06:08:06;;;;;;;47.07;42.37;;;;;;;;;;5052226;28;20449;-75
2022/08/27 06:10:34;;;;;;;47.40;42.57;;;;;;;;;;5051348;28;20984;-76
2022/08/27 06:13:03;;;;;;;47.93;42.80;;;;;;;;;;5051488;28;20821;-76
2022/08/27 06:15:30;;;;;;;45.10;40.70;;;;;;;;;;5051334;28;20456;-74
2022/08/27 06:17:57;;;;;;;46.53;41.67;;;;;;;;;;5052203;28;20786;-74
2022/08/27 06:20:24;;;;;;;48.43;43.23;;;;;;;;;;5050977;28;20441;-75
2022/08/27 06:22:51;;;;;;;49.80;42.83;;;;;;;;;;5051450;28;20453;-77
2022/08/27 06:25:19;;;;;;;47.20;42.00;;;;;;;;;;5051705;28;20449;-75
2022/08/27 06:27:45;;;;;;;45.70;41.13;;;;;;;;;;5051556;28;20465;-76
2022/08/27 06:30:14;;;;;;;46.03;41.33;;;;;;;;;;5051363;28;20481;-76
2022/08/27 06:32:41;;;;;;;47.13;42.27;;;;;;;;;;5051637;28;20445;-75
2022/08/27 06:35:08;;;;;;;45.00;40.20;;;;;;;;;;5051488;28;20865;-75
2022/08/27 06:37:35;;;;;;;45.57;40.97;;;;;;;;;;5051566;28;20461;-75
2022/08/27 06:40:02;;;;;;;47.27;42.17;;;;;;;;;;5051915;28;20515;-75
2022/08/27 06:42:30;;;;;;;46.07;41.10;;;;;;;;;;5051114;28;20441;-75
2022/08/27 06:44:57;;;;;;;44.97;40.17;;;;;;;;;;5051332;28;20964;-75
2022/08/27 06:47:25;;;;;;;46.93;42.00;;;;;;;;;;5051316;28;20473;-75
2022/08/27 06:49:52;;;;;;;44.97;40.67;;;;;;;;;;5051304;28;21095;-75
2022/08/27 06:52:19;;;;;;;45.27;40.43;;;;;;;;;;5051460;28;20442;-77
2022/08/27 06:54:46;;;;;;;44.33;39.80;;;;;;;;;;5046764;28;20438;-76
2022/08/27 06:57:13;;;;;;;43.20;38.80;;;;;;;;;;5051928;28;20480;-75
2022/08/27 06:59:40;;;;;;;45.07;40.57;;;;;;;;;;5052919;28;20937;-75
2022/08/27 07:02:08;;;;;;;44.30;39.43;;;;;;;;;;5051856;28;20452;-75
2022/08/27 07:04:36;;;;;;;43.33;38.87;;;;;;;;;;5050685;28;21028;-76
2022/08/27 07:07:05;;;;;;;44.90;40.00;;;;;;;;;;5051009;28;20465;-74
2022/08/27 07:09:32;;;;;;;42.07;37.87;;;;;;;;;;5050656;28;21052;-75
2022/08/27 07:11:59;;;;;;;43.83;39.13;;;;;;;;;;5051408;28;20503;-75
2022/08/27 07:14:26;;;;;;;44.40;38.37;;;;;;;;;;5051089;28;20508;-75
2022/08/27 07:16:54;;;;;;;41.57;37.40;;;;;;;;;;5051476;28;20464;-74
2022/08/27 07:19:21;;;;;;;42.70;38.30;;;;;;;;;;5052894;28;20504;-75
2022/08/27 07:21:49;;;;;;;42.83;38.30;;;;;;;;;;5053590;28;20496;-75
2022/08/27 07:24:17;;;;;;;43.07;38.53;;;;;;;;;;5053448;28;20461;-75
2022/08/27 07:26:45;;;;;;;39.40;35.33;;;;;;;;;;5050944;28;20472;-76
2022/08/27 07:29:14;;;;;;;43.43;38.73;;;;;;;;;;5051283;28;20534;-75
2022/08/27 07:31:42;;;;;;;42.33;36.97;;;;;;;;;;5050267;28;20472;-75
2022/08/27 07:34:09;;;;;;;41.83;37.67;;;;;;;;;;5050378;28;20450;-76
2022/08/27 07:36:37;;;;;;;39.57;35.70;;;;;;;;;;5050640;28;21041;-75
2022/08/27 07:39:06;;;;;;;39.93;36.03;;;;;;;;;;5050932;28;20446;-75
2022/08/27 07:44:23;;;;;;;42.03;38.00;;;;;;;;;;5050850;28;20449;-75
2022/08/27 07:44:24;;;;;;;43.33;38.93;;;;;;;;;;5056879;28;20433;-75
2022/08/27 07:46:51;;;;;;;45.27;38.10;;;;;;;;;;5063945;28;20507;-76
2022/08/27 07:49:19;;;;;;;41.07;37.10;;;;;;;;;;5063789;28;20451;-75
2022/08/27 07:51:46;;;;;;;42.57;38.17;;;;;;;;;;5064117;28;20449;-76
2022/08/27 07:54:15;;;;;;;44.77;39.37;;;;;;;;;;5070952;28;20445;-76
2022/08/27 07:56:42;;;;;;;42.37;37.83;;;;;;;;;;5057493;28;20458;-75
2022/08/27 07:59:09;;;;;;;41.70;37.40;;;;;;;;;;5051804;28;20499;-76
2022/08/27 08:01:36;;;;;;;41.97;37.87;;;;;;;;;;5051032;28;20448;-76
2022/08/27 08:04:04;;;;;;;43.00;38.60;;;;;;;;;;5050651;28;20455;-77
2022/08/27 08:06:31;;;;;;;41.33;37.43;;;;;;;;;;5051267;28;20466;-76
2022/08/27 08:08:59;;;;;;;42.10;37.93;;;;;;;;;;5050375;28;21018;-76
2022/08/27 08:11:27;;;;;;;40.83;36.80;;;;;;;;;;5049923;28;20867;-76
2022/08/27 08:13:54;;;;;;;44.80;40.40;;;;;;;;;;5049830;28;20446;-75
2022/08/27 08:16:23;;;;;;;43.13;38.80;;;;;;;;;;5049620;28;20457;-75
2022/08/27 08:18:51;;;;;;;40.67;36.73;;;;;;;;;;5050190;28;20533;-75
2022/08/27 08:21:18;;;;;;;42.10;37.90;;;;;;;;;;5050620;28;20525;-74
2022/08/27 08:23:46;;;;;;;41.40;37.13;;;;;;;;;;5049226;28;20882;-74
2022/08/27 08:26:13;;;;;;;43.73;39.20;;;;;;;;;;5049590;28;20560;-77
2022/08/27 08:28:41;;;;;;;48.20;40.13;;;;;;;;;;5049749;28;20481;-75
2022/08/27 08:31:08;;;;;;;45.20;39.27;;;;;;;;;;5049535;28;20542;-77
2022/08/27 08:33:36;;;;;;;45.17;39.60;;;;;;;;;;5049351;28;20456;-75
2022/08/27 08:36:04;;;;;;;47.80;39.00;;;;;;;;;;5049450;28;20467;-75
2022/08/27 08:38:31;;;;;;;43.70;39.20;;;;;;;;;;5049399;28;20438;-75
2022/08/27 08:40:58;;;;;;;43.47;39.00;;;;;;;;;;5049218;28;20438;-75
2022/08/27 08:43:27;;;;;;;44.17;39.70;;;;;;;;;;5049960;28;20537;-76
2022/08/27 08:45:56;;;;;;;45.27;40.77;;;;;;;;;;5051717;28;20901;-76
2022/08/27 08:48:25;;;;;;;47.80;42.87;;;;;;;;;;5044649;28;20516;-76
2022/08/27 08:50:55;;;;;;;44.43;39.63;;;;;;;;;;5045220;28;20481;-75
2022/08/27 08:53:29;;;;;;;45.93;40.97;;;;;;;;;;5051555;28;20533;-76
2022/08/27 08:55:59;;;;;;;46.00;41.23;;;;;;;;;;5047228;28;20470;-75
2022/08/27 08:58:29;;;;;;;45.47;40.77;;;;;;;;;;5050797;28;20446;-77
2022/08/27 09:00:59;;;;;;;44.13;39.43;;;;;;;;;;5053686;28;20442;-76
2022/08/27 09:03:26;;;;;;;45.20;40.40;;;;;;;;;;5053320;28;20455;-76
2022/08/27 09:05:55;;;;;;;41.77;37.67;;;;;;;;;;5053443;28;20542;-75
2022/08/27 09:08:24;;;;;;;43.17;38.93;;;;;;;;;;5053235;28;20851;-76
2022/08/27 09:10:53;;;;;;;44.67;40.07;;;;;;;;;;5053708;28;20783;-76
2022/08/27 09:13:23;;;;;;;42.77;38.50;;;;;;;;;;5052963;28;21007;-76
2022/08/27 09:15:52;;;;;;;36.67;33.10;;;;;;;;;;5045637;28;20527;-76
2022/08/27 09:18:20;;;;;;;30.73;27.60;;;;;;;;;;5051451;28;20929;-76
2022/08/27 09:20:50;;;;;;;24.73;22.10;;;;;;;;;;5053393;28;20445;-77
2022/08/27 09:23:20;;;;;;;22.00;20.03;;;;;;;;;;5053233;28;20448;-76
2022/08/27 09:25:47;;;;;;;21.80;19.90;;;;;;;;;;5056204;28;20526;-75
2022/08/27 09:31:00;;;;;;;20.10;18.33;;;;;;;;;;5057467;28;20492;-76
2022/08/27 09:33:29;;;;;;;19.10;17.50;;;;;;;;;;5056367;28;20472;-75
2022/08/27 09:35:55;;;;;;;20.60;18.60;;;;;;;;;;5056777;28;20469;-77
2022/08/27 09:38:27;;;;;;;22.00;19.93;;;;;;;;;;5060759;28;20468;-75
2022/08/27 09:40:56;;;;;;;20.97;19.17;;;;;;;;;;5058025;28;20546;-76
2022/08/27 09:43:25;;;;;;;22.97;20.87;;;;;;;;;;5059236;28;20450;-76
2022/08/27 09:45:54;;;;;;;22.37;20.27;;;;;;;;;;5065794;28;20479;-75
2022/08/27 09:48:22;;;;;;;23.70;21.77;;;;;;;;;;5070979;28;20437;-74
2022/08/27 09:50:53;;;;;;;23.90;21.80;;;;;;;;;;5070765;28;20481;-76
2022/08/27 09:53:20;;;;;;;23.13;21.30;;;;;;;;;;5071078;28;20426;-76
2022/08/27 09:55:49;;;;;;;23.03;21.13;;;;;;;;;;5068615;28;20457;-77
2022/08/27 09:58:19;;;;;;;24.27;22.17;;;;;;;;;;5061672;28;21007;-76
2022/08/27 10:00:47;;;;;;;23.00;21.00;;;;;;;;;;5055357;28;20796;-76
2022/08/27 10:03:14;;;;;;;23.17;21.37;;;;;;;;;;5054908;28;20619;-76
2022/08/27 10:05:44;;;;;;;22.70;20.80;;;;;;;;;;5054974;28;20513;-75
2022/08/27 10:08:18;;;;;;;23.57;21.67;;;;;;;;;;5055005;28;20453;-75
2022/08/27 10:10:50;;;;;;;23.87;21.73;;;;;;;;;;5046420;28;20858;-76
2022/08/27 10:13:18;;;;;;;27.30;24.97;;;;;;;;;;5054440;28;20583;-75
2022/08/27 10:15:52;;;;;;;25.60;23.40;;;;;;;;;;5054005;28;20481;-75
2022/08/27 10:18:24;;;;;;;26.93;24.53;;;;;;;;;;5053998;28;20445;-75
2022/08/27 10:20:56;;;;;;;28.00;25.40;;;;;;;;;;5053676;28;20496;-76
2022/08/27 10:23:32;;;;;;;29.00;26.50;;;;;;;;;;5053008;28;20475;-75
2022/08/27 10:26:04;;;;;;;27.60;25.20;;;;;;;;;;5052714;28;20556;-75
2022/08/27 10:28:38;;;;;;;29.17;26.53;;;;;;;;;;5052494;28;20451;-76
2022/08/27 10:31:10;;;;;;;27.50;25.00;;;;;;;;;;5054827;28;21008;-76
2022/08/27 10:33:40;;;;;;;29.23;26.60;;;;;;;;;;5051864;28;20441;-76
2022/08/27 10:36:11;;;;;;;29.30;26.60;;;;;;;;;;5050377;28;20466;-75
2022/08/27 10:38:41;;;;;;;28.93;26.43;;;;;;;;;;5049525;28;20576;-76
2022/08/27 10:41:13;;;;;;;28.17;25.67;;;;;;;;;;5055966;28;20441;-77
2022/08/27 10:43:53;;;;;;;27.37;24.93;;;;;;;;;;5051879;28;20452;-75
2022/08/27 10:46:29;;;;;;;28.40;25.90;;;;;;;;;;5050864;28;20488;-75
2022/08/27 10:48:58;;;;;;;29.57;26.97;;;;;;;;;;5051176;28;20451;-76
2022/08/27 10:51:29;;;;;;;27.13;24.53;;;;;;;;;;5050891;28;21246;-76
2022/08/27 10:54:01;;;;;;;30.20;27.10;;;;;;;;;;5054374;28;20452;-75
2022/08/27 10:56:51;;;;;;;30.20;27.53;;;;;;;;;;5064573;28;20946;-75
2022/08/27 10:59:32;;;;;;;30.97;28.07;;;;;;;;;;5062825;28;20491;-77
2022/08/27 11:02:04;;;;;;;31.43;28.50;;;;;;;;;;5052213;28;20438;-76
2022/08/27 11:04:33;;;;;;;30.17;27.47;;;;;;;;;;5051938;28;20437;-76
2022/08/27 11:07:01;;;;;;;28.97;26.20;;;;;;;;;;5051159;28;20470;-75
2022/08/27 11:09:35;;;;;;;28.20;25.70;;;;;;;;;;5051827;28;20454;-76
2022/08/27 11:12:04;;;;;;;28.50;25.80;;;;;;;;;;5052074;28;20582;-77
2022/08/27 11:14:36;;;;;;;28.90;26.50;;;;;;;;;;5051480;28;20444;-77
2022/08/27 11:17:04;;;;;;;29.67;26.90;;;;;;;;;;5050730;28;20470;-76
2022/08/27 11:19:37;;;;;;;30.73;28.00;;;;;;;;;;5051311;28;20502;-76
2022/08/27 11:22:06;;;;;;;31.80;28.60;;;;;;;;;;5051997;28;20500;-75
2022/08/27 11:24:42;;;;;;;30.20;27.50;;;;;;;;;;5050177;28;20450;-75
2022/08/27 11:27:09;;;;;;;28.00;25.40;;;;;;;;;;5050033;28;21350;-76
2022/08/27 11:29:39;;;;;;;30.30;27.40;;;;;;;;;;5047130;28;20786;-76
2022/08/27 11:32:11;;;;;;;30.63;27.83;;;;;;;;;;5050839;28;20474;-77
2022/08/27 11:34:40;;;;;;;29.83;27.03;;;;;;;;;;5050445;28;20445;-77
2022/08/27 11:37:24;;;;;;;30.93;28.00;;;;;;;;;;5050479;28;20458;-75
2022/08/27 11:40:17;;;;;;;30.57;27.80;;;;;;;;;;5050029;28;20445;-77
2022/08/27 11:42:47;;;;;;;31.33;28.43;;;;;;;;;;4994344;28;20449;-76
2022/08/27 11:45:17;;;;;;;31.70;28.70;;;;;;;;;;5051164;28;20430;-76
2022/08/27 11:47:51;;;;;;;29.90;27.07;;;;;;;;;;5050838;28;20550;-77
2022/08/27 11:50:20;;;;;;;31.57;28.67;;;;;;;;;;5050527;28;20449;-77
2022/08/27 11:52:58;;;;;;;30.07;27.37;;;;;;;;;;5050335;28;20450;-77
2022/08/27 11:55:26;;;;;;;29.47;26.73;;;;;;;;;;5050800;28;20429;-75
2022/08/27 11:58:06;;;;;;;30.60;28.00;;;;;;;;;;5049681;28;20915;-76
2022/08/27 12:00:33;;;;;;;28.47;25.97;;;;;;;;;;5050349;28;20449;-76
2022/08/27 12:03:04;;;;;;;29.80;27.10;;;;;;;;;;5049732;28;20449;-76
2022/08/27 12:05:36;;;;;;;30.23;27.43;;;;;;;;;;5050814;28;20932;-77
2022/08/27 12:08:13;;;;;;;32.53;29.50;;;;;;;;;;5051426;28;21159;-77
2022/08/27 12:10:47;;;;;;;31.50;28.57;;;;;;;;;;5052506;28;20445;-76
2022/08/27 12:13:18;;;;;;;30.27;27.53;;;;;;;;;;5057185;28;20453;-77
2022/08/27 12:15:50;;;;;;;31.43;28.70;;;;;;;;;;5057293;28;20545;-77
2022/08/27 12:18:37;;;;;;;32.00;29.10;;;;;;;;;;5051178;28;20465;-76
2022/08/27 12:21:06;;;;;;;31.93;28.97;;;;;;;;;;5052371;28;20926;-77
2022/08/27 12:23:51;;;;;;;32.33;29.50;;;;;;;;;;5052124;28;20454;-76
2022/08/27 12:26:31;;;;;;;33.00;30.23;;;;;;;;;;5051298;28;20469;-77
2022/08/27 12:29:13;;;;;;;32.93;29.80;;;;;;;;;;5051946;28;20445;-77
2022/08/27 12:31:42;;;;;;;32.07;29.07;;;;;;;;;;5052107;28;20477;-75
2022/08/27 12:34:14;;;;;;;34.23;31.03;;;;;;;;;;5053079;28;20520;-78
2022/08/27 12:36:41;;;;;;;32.83;29.80;;;;;;;;;;5054637;28;20466;-77
2022/08/27 12:39:12;;;;;;;33.20;30.23;;;;;;;;;;5055410;28;20637;-76
2022/08/27 12:41:44;;;;;;;32.40;29.40;;;;;;;;;;5050795;28;20453;-75
2022/08/27 12:44:13;;;;;;;32.37;29.57;;;;;;;;;;5049043;28;20454;-75
2022/08/27 12:46:45;;;;;;;33.53;30.43;;;;;;;;;;5048921;28;20469;-75
2022/08/27 12:49:16;;;;;;;33.47;30.17;;;;;;;;;;5049959;28;20450;-75
2022/08/27 12:51:45;;;;;;;34.43;31.30;;;;;;;;;;5049840;28;20489;-76
2022/08/27 12:54:22;;;;;;;31.93;28.90;;;;;;;;;;5049705;28;20499;-76
2022/08/27 12:56:56;;;;;;;32.90;29.43;;;;;;;;;;5049891;28;21075;-76
2022/08/27 12:59:40;;;;;;;31.90;28.90;;;;;;;;;;5050073;28;20454;-75
2022/08/27 13:02:15;;;;;;;34.23;31.03;;;;;;;;;;5050074;28;20449;-76
2022/08/27 13:04:42;;;;;;;32.17;29.40;;;;;;;;;;5051449;28;20953;-76
2022/08/27 13:07:10;;;;;;;32.77;29.80;;;;;;;;;;5052292;28;20521;-75
2022/08/27 13:09:38;;;;;;;32.07;29.13;;;;;;;;;;5051114;28;20450;-75
2022/08/27 13:12:07;;;;;;;34.27;31.17;;;;;;;;;;5051738;28;20473;-76
2022/08/27 13:14:36;;;;;;;36.87;33.43;;;;;;;;;;5051728;28;20799;-76
2022/08/27 13:17:05;;;;;;;35.17;31.97;;;;;;;;;;5050046;28;20977;-74
2022/08/27 13:19:35;;;;;;;34.63;31.40;;;;;;;;;;5049600;28;20461;-77
2022/08/27 13:22:03;;;;;;;34.70;31.40;;;;;;;;;;5049420;28;20441;-75
2022/08/27 13:24:32;;;;;;;33.97;30.80;;;;;;;;;;5049577;28;20864;-75
2022/08/27 13:27:00;;;;;;;32.27;29.27;;;;;;;;;;5050057;28;21256;-76
2022/08/27 13:29:27;;;;;;;32.50;29.53;;;;;;;;;;5050007;28;20452;-75
2022/08/27 13:31:55;;;;;;;33.47;30.33;;;;;;;;;;5052717;28;20494;-75
2022/08/27 13:34:24;;;;;;;30.53;27.70;;;;;;;;;;5057515;28;20453;-75
2022/08/27 13:36:54;;;;;;;32.37;29.37;;;;;;;;;;5060580;28;20540;-76
2022/08/27 13:39:22;;;;;;;30.83;28.03;;;;;;;;;;5054007;28;20434;-75
2022/08/27 13:41:49;;;;;;;30.60;27.90;;;;;;;;;;5053648;28;20445;-75
2022/08/27 13:44:21;;;;;;;33.00;30.10;;;;;;;;;;5053096;28;20449;-75
2022/08/27 13:46:50;;;;;;;30.33;27.30;;;;;;;;;;5052832;28;20488;-76
2022/08/27 13:49:20;;;;;;;29.13;25.97;;;;;;;;;;5054009;28;20438;-75
2022/08/27 13:51:47;;;;;;;26.97;24.47;;;;;;;;;;5053817;28;20477;-75
2022/08/27 13:54:15;;;;;;;25.77;23.20;;;;;;;;;;5053550;28;20454;-75
2022/08/27 13:56:56;;;;;;;26.13;23.53;;;;;;;;;;5056200;28;20556;-75
2022/08/27 13:59:25;;;;;;;29.27;26.70;;;;;;;;;;5056517;28;20445;-77
2022/08/27 14:01:55;;;;;;;27.03;24.60;;;;;;;;;;5055684;28;20465;-74
2022/08/27 14:04:23;;;;;;;31.80;28.80;;;;;;;;;;5053986;28;20456;-76
2022/08/27 14:06:50;;;;;;;27.27;24.87;;;;;;;;;;5053044;28;20808;-75
2022/08/27 14:09:20;;;;;;;26.13;23.53;;;;;;;;;;5052914;28;20959;-75
2022/08/27 14:11:48;;;;;;;30.03;27.17;;;;;;;;;;5052614;28;20527;-75
2022/08/27 14:14:17;;;;;;;29.67;27.00;;;;;;;;;;5052137;28;20507;-76
2022/08/27 14:16:44;;;;;;;25.67;23.43;;;;;;;;;;5052058;28;20885;-75
2022/08/27 14:19:12;;;;;;;26.17;23.77;;;;;;;;;;5052494;28;20472;-76
2022/08/27 14:21:42;;;;;;;25.33;23.23;;;;;;;;;;5052074;28;20846;-75
2022/08/27 14:24:10;;;;;;;27.27;24.40;;;;;;;;;;5052360;28;20441;-75
2022/08/27 14:26:38;;;;;;;25.50;23.30;;;;;;;;;;5052269;28;20984;-77
2022/08/27 14:29:05;;;;;;;26.20;23.97;;;;;;;;;;5052648;28;20500;-76
2022/08/27 14:31:32;;;;;;;27.53;24.87;;;;;;;;;;5051951;28;20515;-75
2022/08/27 14:33:59;;;;;;;24.20;22.30;;;;;;;;;;5052280;28;20525;-75
2022/08/27 14:36:28;;;;;;;27.90;25.30;;;;;;;;;;5052308;28;20519;-75